createdAt,value
2022-11-05T00:01:01.024Z,100384.50
2022-11-05T00:03:46.780Z,100391.47
2022-11-05T00:06:32.422Z,100386.03
2022-11-05T00:09:18.408Z,100381.66
2022-11-05T00:12:05.368Z,100384.50
2022-11-05T00:14:55.683Z,100387.22
2022-11-05T00:17:22.807Z,100384.31
2022-11-05T00:19:49.851Z,100389.00
2022-11-05T00:22:35.771Z,100386.03
2022-11-05T00:25:14.872Z,100401.13
2022-11-05T00:27:42.293Z,100400.94
2022-11-05T00:30:10.088Z,100402.06
2022-11-05T00:32:37.187Z,100377.81
2022-11-05T00:35:06.063Z,100395.84
2022-11-05T00:37:33.319Z,100407.91
2022-11-05T00:40:00.409Z,100406.34
2022-11-05T00:42:45.746Z,100406.16
2022-11-05T00:45:13.450Z,100397.41
2022-11-05T00:47:59.180Z,100418.25
2022-11-05T00:50:26.465Z,100427.19
2022-11-05T00:52:55.728Z,100405.97
2022-11-05T00:55:23.181Z,100417.69
2022-11-05T00:57:50.767Z,100421.78
2022-11-05T01:00:18.626Z,100421.22
2022-11-05T01:02:46.171Z,100429.00
2022-11-05T01:05:14.186Z,100430.50
2022-11-05T01:07:41.381Z,100430.81
2022-11-05T01:10:08.888Z,100425.00
2022-11-05T01:12:36.081Z,100431.53
2022-11-05T01:15:03.409Z,100432.25
2022-11-05T01:17:30.660Z,100425.72
2022-11-05T01:19:57.719Z,100437.78
2022-11-05T01:22:24.743Z,100445.50
2022-11-05T01:24:51.788Z,100436.88
2022-11-05T01:27:18.858Z,100446.44
2022-11-05T01:29:45.900Z,100443.38
2022-11-05T01:32:12.942Z,100442.66
2022-11-05T01:34:39.986Z,100440.84
2022-11-05T01:37:07.073Z,100438.63
2022-11-05T01:39:34.157Z,100440.25
2022-11-05T01:42:01.515Z,100450.09
2022-11-05T01:44:59.577Z,100446.44
2022-11-05T01:47:29.582Z,100453.22
2022-11-05T01:50:00.816Z,100459.72
2022-11-05T01:52:32.190Z,100447.84
2022-11-05T01:54:59.849Z,100458.31
2022-11-05T01:57:28.638Z,100461.31
2022-11-05T01:59:59.960Z,100464.16
2022-11-05T02:02:27.690Z,100469.69
2022-11-05T02:05:01.339Z,100448.19
2022-11-05T02:07:31.317Z,100457.00
2022-11-05T02:10:10.407Z,100473.94
2022-11-05T02:12:41.868Z,100469.38
2022-11-05T02:15:59.759Z,100475.41
2022-11-05T02:18:52.772Z,100487.78
2022-11-05T02:21:34.962Z,100485.44
2022-11-05T02:24:01.933Z,100489.09
2022-11-05T02:26:47.493Z,100490.78
2022-11-05T02:29:55.461Z,100488.78
2022-11-05T02:32:58.056Z,100487.84
2022-11-05T02:35:53.960Z,100484.69
2022-11-05T02:39:06.021Z,100490.13
2022-11-05T02:41:40.155Z,100489.09
2022-11-05T02:44:30.116Z,100494.16
2022-11-05T02:46:58.860Z,100498.69
2022-11-05T02:49:57.619Z,100501.53
2022-11-05T02:52:42.829Z,100500.00
2022-11-05T02:55:27.406Z,100498.16
2022-11-05T02:57:54.797Z,100502.28
2022-11-05T03:00:55.755Z,100503.03
2022-11-05T03:03:45.327Z,100504.88
2022-11-05T03:06:12.347Z,100509.88
2022-11-05T03:08:39.361Z,100508.03
2022-11-05T03:11:17.790Z,100506.19
2022-11-05T03:13:58.487Z,100510.56
2022-11-05T03:16:35.681Z,100503.69
2022-11-05T03:19:24.600Z,100505.00
2022-11-05T03:21:58.227Z,100511.22
2022-11-05T03:24:35.817Z,100516.78
2022-11-05T03:27:08.982Z,100518.59
2022-11-05T03:29:43.694Z,100525.00
2022-11-05T03:32:12.027Z,100529.19
2022-11-05T03:34:43.541Z,100529.41
2022-11-05T03:37:11.825Z,100516.44
2022-11-05T03:39:52.987Z,100534.53
2022-11-05T03:42:26.585Z,100529.16
2022-11-05T03:44:58.332Z,100532.88
2022-11-05T03:47:33.796Z,100538.56
2022-11-05T03:50:19.222Z,100532.34
2022-11-05T03:52:52.599Z,100532.09
2022-11-05T03:55:29.348Z,100536.78
2022-11-05T03:57:58.626Z,100528.22
2022-11-05T04:00:25.839Z,100547.59
2022-11-05T04:02:53.082Z,100556.31
2022-11-05T04:05:20.205Z,100554.56
2022-11-05T04:08:09.939Z,100552.66
2022-11-05T04:10:58.805Z,100560.03
2022-11-05T04:13:26.039Z,100564.56
2022-11-05T04:16:13.366Z,100572.59
2022-11-05T04:18:40.847Z,100573.63
2022-11-05T04:21:27.659Z,100569.16
2022-11-05T04:24:10.631Z,100572.75
2022-11-05T04:26:40.965Z,100566.31
2022-11-05T04:29:27.086Z,100569.25
2022-11-05T04:31:54.897Z,100567.22
2022-11-05T04:34:22.801Z,100576.72
2022-11-05T04:36:51.498Z,100569.31
2022-11-05T04:39:19.676Z,100583.47
2022-11-05T04:41:48.704Z,100562.19
2022-11-05T04:44:16.993Z,100578.97
2022-11-05T04:46:44.162Z,100579.97
2022-11-05T04:49:11.301Z,100559.94
2022-11-05T04:51:38.377Z,100583.81
2022-11-05T04:54:05.518Z,100587.03
2022-11-05T04:56:32.669Z,100592.22
2022-11-05T04:58:59.796Z,100591.81
2022-11-05T05:01:26.935Z,100595.75
2022-11-05T05:03:55.002Z,100588.03
2022-11-05T05:06:23.058Z,100590.63
2022-11-05T05:08:51.736Z,100593.03
2022-11-05T05:11:21.010Z,100585.19
2022-11-05T05:13:49.316Z,100595.25
2022-11-05T05:16:23.889Z,100594.06
2022-11-05T05:18:52.078Z,100598.22
2022-11-05T05:21:46.399Z,100605.38
2022-11-05T05:24:20.076Z,100603.38
2022-11-05T05:26:51.088Z,100604.97
2022-11-05T05:29:18.199Z,100607.31
2022-11-05T05:31:45.482Z,100613.78
2022-11-05T05:34:14.200Z,100607.13
2022-11-05T05:36:41.569Z,100613.25
2022-11-05T05:39:11.002Z,100623.06
2022-11-05T05:41:38.261Z,100621.38
2022-11-05T05:44:06.416Z,100630.78
2022-11-05T05:46:36.612Z,100632.13
2022-11-05T05:49:06.657Z,100638.84
2022-11-05T05:51:36.558Z,100625.75
2022-11-05T05:54:03.750Z,100633.63
2022-11-05T05:56:30.878Z,100642.38
2022-11-05T05:58:57.940Z,100643.97
2022-11-05T06:01:25.005Z,100642.72
2022-11-05T06:03:52.094Z,100644.88
2022-11-05T06:06:22.741Z,100642.66
2022-11-05T06:08:49.826Z,100646.16
2022-11-05T06:11:16.914Z,100649.91
2022-11-05T06:13:44.004Z,100643.47
2022-11-05T06:16:11.312Z,100646.38
2022-11-05T06:18:38.416Z,100650.09
2022-11-05T06:21:07.933Z,100648.06
2022-11-05T06:23:36.690Z,100655.47
2022-11-05T06:26:14.814Z,100650.72
2022-11-05T06:28:42.778Z,100655.78
2022-11-05T06:31:11.313Z,100662.00
2022-11-05T06:33:39.569Z,100658.97
2022-11-05T06:36:08.033Z,100660.81
2022-11-05T06:38:36.809Z,100657.47
2022-11-05T06:41:09.007Z,100651.44
2022-11-05T06:43:38.153Z,100667.19
2022-11-05T06:46:05.371Z,100674.06
2022-11-05T06:48:33.108Z,100666.50
2022-11-05T06:51:00.273Z,100659.13
2022-11-05T06:53:27.624Z,100664.19
2022-11-05T06:55:54.955Z,100675.41
2022-11-05T06:58:22.205Z,100656.19
2022-11-05T07:00:49.301Z,100674.03
2022-11-05T07:03:16.432Z,100670.19
2022-11-05T07:05:46.655Z,100677.53
2022-11-05T07:08:14.249Z,100692.63
2022-11-05T07:10:41.362Z,100687.38
2022-11-05T07:13:09.056Z,100669.97
2022-11-05T07:15:37.412Z,100692.31
2022-11-05T07:18:07.329Z,100696.22
2022-11-05T07:20:34.836Z,100693.50
2022-11-05T07:23:05.676Z,100684.94
2022-11-05T07:25:34.293Z,100686.91
2022-11-05T07:28:02.354Z,100679.41
2022-11-05T07:30:32.460Z,100696.06
2022-11-05T07:32:59.960Z,100698.22
2022-11-05T07:35:27.149Z,100694.84
2022-11-05T07:37:55.518Z,100699.81
2022-11-05T07:40:25.254Z,100709.38
2022-11-05T07:42:54.638Z,100693.06
2022-11-05T07:45:22.292Z,100710.94
2022-11-05T07:47:57.849Z,100708.91
2022-11-05T07:50:34.236Z,100706.28
2022-11-05T07:53:10.292Z,100720.81
2022-11-05T07:55:37.905Z,100721.81
2022-11-05T07:58:04.940Z,100729.44
2022-11-05T08:00:33.823Z,100724.06
2022-11-05T08:03:13.048Z,100732.72
2022-11-05T08:05:44.712Z,100734.63
2022-11-05T08:08:17.235Z,100728.59
2022-11-05T08:10:44.556Z,100724.91
2022-11-05T08:13:13.428Z,100722.25
2022-11-05T08:15:42.299Z,100741.88
2022-11-05T08:18:17.193Z,100740.00
2022-11-05T08:20:45.154Z,100729.38
2022-11-05T08:23:12.817Z,100730.75
2022-11-05T08:25:40.624Z,100733.59
2022-11-05T08:28:11.668Z,100741.81
2022-11-05T08:30:38.613Z,100736.06
2022-11-05T08:33:11.660Z,100737.19
2022-11-05T08:35:39.754Z,100740.03
2022-11-05T08:38:09.134Z,100716.81
2022-11-05T08:40:37.242Z,100744.88
2022-11-05T08:43:06.972Z,100727.06
2022-11-05T08:45:38.331Z,100738.47
2022-11-05T08:48:08.896Z,100733.78
2022-11-05T08:50:37.378Z,100746.91
2022-11-05T08:53:06.875Z,100745.06
2022-11-05T08:55:34.410Z,100744.69
2022-11-05T08:58:04.220Z,100738.69
2022-11-05T09:00:33.819Z,100735.66
2022-11-05T09:03:02.874Z,100731.78
2022-11-05T09:05:31.670Z,100730.72
2022-11-05T09:08:01.373Z,100736.16
2022-11-05T09:10:29.073Z,100732.88
2022-11-05T09:12:56.448Z,100733.13
2022-11-05T09:15:24.607Z,100735.53
2022-11-05T09:17:51.947Z,100735.53
2022-11-05T09:20:19.100Z,100745.38
2022-11-05T09:22:46.954Z,100743.91
2022-11-05T09:25:15.896Z,100745.75
2022-11-05T09:27:43.886Z,100745.03
2022-11-05T09:30:12.851Z,100746.44
2022-11-05T09:32:40.586Z,100746.59
2022-11-05T09:35:08.420Z,100743.59
2022-11-05T09:37:37.546Z,100745.72
2022-11-05T09:40:05.706Z,100745.38
2022-11-05T09:42:41.042Z,100747.91
2022-11-05T09:45:17.260Z,100751.59
2022-11-05T09:47:52.543Z,100749.91
2022-11-05T09:50:36.783Z,100745.88
2022-11-05T09:53:05.273Z,100755.63
2022-11-05T09:55:45.209Z,100762.19
2022-11-05T09:58:23.245Z,100762.75
2022-11-05T10:00:53.476Z,100744.09
2022-11-05T10:03:23.898Z,100748.88
2022-11-05T10:05:52.448Z,100759.75
2022-11-05T10:08:24.585Z,100767.41
2022-11-05T10:10:56.053Z,100769.28
2022-11-05T10:13:35.942Z,100771.03
2022-11-05T10:16:05.701Z,100771.84
2022-11-05T10:18:39.738Z,100768.69
2022-11-05T10:21:07.917Z,100760.38
2022-11-05T10:23:36.466Z,100776.25
2022-11-05T10:26:09.325Z,100778.22
2022-11-05T10:28:36.794Z,100771.97
2022-11-05T10:31:12.102Z,100766.38
2022-11-05T10:33:52.134Z,100780.81
2022-11-05T10:36:25.770Z,100778.06
2022-11-05T10:38:54.227Z,100766.59
2022-11-05T10:41:42.273Z,100779.97
2022-11-05T10:44:27.536Z,100777.22
2022-11-05T10:47:31.924Z,100780.69
2022-11-05T10:50:05.399Z,100780.91
2022-11-05T10:52:42.559Z,100791.03
2022-11-05T10:55:38.772Z,100782.31
2022-11-05T10:58:08.870Z,100788.03
2022-11-05T11:00:36.646Z,100796.06
2022-11-05T11:03:06.602Z,100786.13
2022-11-05T11:05:38.119Z,100792.78
2022-11-05T11:08:11.048Z,100791.66
2022-11-05T11:10:42.978Z,100786.81
2022-11-05T11:13:22.077Z,100805.50
2022-11-05T11:15:51.088Z,100791.22
2022-11-05T11:18:27.967Z,100802.16
2022-11-05T11:21:05.972Z,100800.94
2022-11-05T11:23:40.746Z,100791.03
2022-11-05T11:26:09.049Z,100793.75
2022-11-05T11:28:56.732Z,100795.75
2022-11-05T11:31:26.929Z,100789.34
2022-11-05T11:34:11.715Z,100783.16
2022-11-05T11:36:46.102Z,100819.66
2022-11-05T11:39:22.297Z,100807.84
2022-11-05T11:41:55.739Z,100826.47
2022-11-05T11:44:29.747Z,100823.47
2022-11-05T11:47:02.106Z,100818.44
2022-11-05T11:49:38.250Z,100819.09
2022-11-05T11:52:29.917Z,100819.75
2022-11-05T11:55:18.684Z,100817.81
2022-11-05T11:57:47.291Z,100816.25
2022-11-05T12:00:15.978Z,100828.47
2022-11-05T12:03:01.855Z,100828.59
2022-11-05T12:05:48.390Z,100822.97
2022-11-05T12:08:58.213Z,100828.66
2022-11-05T12:11:41.894Z,100828.84
2022-11-05T12:14:42.324Z,100830.88
2022-11-05T12:17:21.120Z,100828.78
2022-11-05T12:20:31.147Z,100837.06
2022-11-05T12:23:16.544Z,100833.03
2022-11-05T12:26:04.262Z,100831.50
2022-11-05T12:29:16.588Z,100831.44
2022-11-05T12:31:50.115Z,100835.56
2022-11-05T12:34:42.815Z,100840.22
2022-11-05T12:37:25.190Z,100837.56
2022-11-05T12:40:29.342Z,100834.72
2022-11-05T12:43:10.542Z,100836.50
2022-11-05T12:46:15.011Z,100822.81
2022-11-05T12:49:00.831Z,100834.50
2022-11-05T12:51:27.819Z,100838.75
2022-11-05T12:54:23.411Z,100841.28
2022-11-05T12:56:55.761Z,100843.94
2022-11-05T12:59:34.792Z,100848.81
2022-11-05T13:02:07.712Z,100855.34
2022-11-05T13:04:45.739Z,100852.78
2022-11-05T13:07:19.444Z,100845.56
2022-11-05T13:09:54.644Z,100847.31
2022-11-05T13:12:25.521Z,100849.25
2022-11-05T13:14:57.597Z,100849.28
2022-11-05T13:17:32.786Z,100857.59
2022-11-05T13:20:17.295Z,100835.56
2022-11-05T13:22:48.399Z,100857.88
2022-11-05T13:25:28.730Z,100860.69
2022-11-05T13:28:19.333Z,100866.59
2022-11-05T13:30:49.331Z,100857.53
2022-11-05T13:33:21.947Z,100869.63
2022-11-05T13:36:16.984Z,100883.44
2022-11-05T13:39:00.340Z,100883.88
2022-11-05T13:41:30.428Z,100889.56
2022-11-05T13:44:15.594Z,100882.38
2022-11-05T13:46:55.254Z,100880.97
2022-11-05T13:50:00.704Z,100897.31
2022-11-05T13:53:04.943Z,100892.81
2022-11-05T13:55:53.881Z,100901.75
2022-11-05T13:58:36.283Z,100904.94
2022-11-05T14:01:10.278Z,100886.66
2022-11-05T14:03:38.339Z,100896.44
2022-11-05T14:06:10.280Z,100900.09
2022-11-05T14:08:44.297Z,100904.69
2022-11-05T14:11:32.936Z,100919.97
2022-11-05T14:14:05.594Z,100911.75
2022-11-05T14:16:50.819Z,100911.13
2022-11-05T14:19:17.881Z,100921.50
2022-11-05T14:21:52.233Z,100919.34
2022-11-05T14:24:27.535Z,100913.47
2022-11-05T14:27:00.552Z,100914.13
2022-11-05T14:29:41.008Z,100918.50
2022-11-05T14:32:19.942Z,100914.03
2022-11-05T14:35:14.673Z,100913.25
2022-11-05T14:37:55.275Z,100919.69
2022-11-05T14:40:22.323Z,100914.50
2022-11-05T14:42:55.644Z,100923.53
2022-11-05T14:45:35.044Z,100921.28
2022-11-05T14:48:05.932Z,100920.72
2022-11-05T14:50:42.972Z,100917.50
2022-11-05T14:53:12.561Z,100912.78
2022-11-05T14:55:42.734Z,100926.25
2022-11-05T14:58:31.798Z,100918.31
2022-11-05T15:01:00.867Z,100916.59
2022-11-05T15:03:47.977Z,100918.31
2022-11-05T15:06:33.542Z,100929.63
2022-11-05T15:09:03.641Z,100927.03
2022-11-05T15:11:37.242Z,100923.34
2022-11-05T15:14:13.450Z,100923.97
2022-11-05T15:16:43.509Z,100921.50
2022-11-05T15:19:22.540Z,100932.22
2022-11-05T15:21:50.896Z,100939.66
2022-11-05T15:24:20.376Z,100943.63
2022-11-05T15:26:56.115Z,100931.16
2022-11-05T15:29:28.315Z,100933.00
2022-11-05T15:31:56.479Z,100943.41
2022-11-05T15:34:23.562Z,100948.22
2022-11-05T15:36:52.953Z,100952.41
2022-11-05T15:39:45.227Z,100959.59
2022-11-05T15:42:23.647Z,100956.06
2022-11-05T15:44:55.049Z,100963.13
2022-11-05T15:47:34.282Z,100959.56
2022-11-05T15:50:14.739Z,100956.16
2022-11-05T15:52:54.658Z,100951.50
2022-11-05T15:55:24.521Z,100948.75
2022-11-05T15:58:10.937Z,100954.66
2022-11-05T16:00:37.981Z,100940.50
2022-11-05T16:03:23.922Z,100952.25
2022-11-05T16:05:51.341Z,100955.94
2022-11-05T16:08:27.759Z,100948.88
2022-11-05T16:10:57.735Z,100953.81
2022-11-05T16:13:41.900Z,100953.34
2022-11-05T16:16:15.178Z,100950.28
2022-11-05T16:18:43.738Z,100952.25
2022-11-05T16:21:14.407Z,100950.13
2022-11-05T16:23:58.137Z,100945.69
2022-11-05T16:27:02.324Z,100947.06
2022-11-05T16:29:32.249Z,100953.69
2022-11-05T16:32:01.907Z,100950.19
2022-11-05T16:34:37.777Z,100957.41
2022-11-05T16:37:13.678Z,100952.69
2022-11-05T16:39:41.282Z,100961.13
2022-11-05T16:42:36.724Z,100961.09
2022-11-05T16:45:04.599Z,100961.75
2022-11-05T16:47:31.923Z,100960.22
2022-11-05T16:49:59.105Z,100956.47
2022-11-05T16:52:26.238Z,100952.47
2022-11-05T16:54:53.440Z,100963.47
2022-11-05T16:57:31.804Z,100960.34
2022-11-05T17:00:00.461Z,100970.06
2022-11-05T17:02:27.812Z,100956.28
2022-11-05T17:04:55.170Z,100974.94
2022-11-05T17:07:22.431Z,100962.88
2022-11-05T17:09:49.663Z,100966.13
2022-11-05T17:12:17.038Z,100959.97
2022-11-05T17:14:44.244Z,100969.84
2022-11-05T17:17:11.347Z,100969.34
2022-11-05T17:19:42.443Z,100976.47
2022-11-05T17:22:09.761Z,100972.78
2022-11-05T17:24:36.902Z,100964.47
2022-11-05T17:27:04.058Z,100967.41
2022-11-05T17:29:31.164Z,100954.41
2022-11-05T17:31:58.223Z,100965.59
2022-11-05T17:34:25.295Z,100977.50
2022-11-05T17:36:52.397Z,100970.38
2022-11-05T17:39:19.455Z,100973.84
2022-11-05T17:41:48.992Z,100953.63
2022-11-05T17:44:16.057Z,100969.53
2022-11-05T17:46:44.637Z,100974.41
2022-11-05T17:49:11.745Z,100968.63
2022-11-05T17:51:38.883Z,100974.97
2022-11-05T17:54:07.603Z,100975.44
2022-11-05T17:56:40.277Z,100972.69
2022-11-05T17:59:10.480Z,100971.53
2022-11-05T18:01:43.161Z,100978.81
2022-11-05T18:04:10.804Z,100986.00
2022-11-05T18:06:41.282Z,100979.19
2022-11-05T18:09:09.763Z,100981.47
2022-11-05T18:11:37.817Z,100973.97
2022-11-05T18:14:05.160Z,100984.09
2022-11-05T18:16:32.966Z,100984.03
2022-11-05T18:19:00.425Z,100982.81
2022-11-05T18:21:27.540Z,100982.34
2022-11-05T18:23:54.590Z,100979.94
2022-11-05T18:26:21.875Z,100985.31
2022-11-05T18:28:48.938Z,100985.78
2022-11-05T18:31:20.688Z,100982.09
2022-11-05T18:33:49.822Z,100976.72
2022-11-05T18:36:18.395Z,100977.97
2022-11-05T18:38:45.884Z,100974.56
2022-11-05T18:41:13.071Z,100980.25
2022-11-05T18:43:40.187Z,100986.69
2022-11-05T18:46:07.984Z,100978.75
2022-11-05T18:48:35.658Z,100988.78
2022-11-05T18:51:15.337Z,100988.81
2022-11-05T18:53:42.610Z,100988.66
2022-11-05T18:56:10.266Z,100988.13
2022-11-05T18:58:38.538Z,100992.19
2022-11-05T19:01:13.526Z,100986.53
2022-11-05T19:03:41.236Z,100994.19
2022-11-05T19:06:09.157Z,100999.31
2022-11-05T19:08:36.930Z,100984.69
2022-11-05T19:11:18.511Z,100991.53
2022-11-05T19:13:45.767Z,100966.72
2022-11-05T19:16:19.306Z,100995.06
2022-11-05T19:18:47.113Z,100991.50
2022-11-05T19:21:23.083Z,101008.06
2022-11-05T19:23:50.933Z,101012.25
2022-11-05T19:26:28.402Z,101012.81
2022-11-05T19:28:58.863Z,100996.00
2022-11-05T19:31:26.981Z,101020.22
2022-11-05T19:33:55.273Z,100998.88
2022-11-05T19:36:24.226Z,101016.88
2022-11-05T19:39:01.352Z,101008.97
2022-11-05T19:41:31.055Z,101020.78
2022-11-05T19:43:59.461Z,101019.19
2022-11-05T19:46:26.588Z,101015.84
2022-11-05T19:48:54.224Z,101013.28
2022-11-05T19:51:27.863Z,101024.22
2022-11-05T19:53:55.445Z,101023.97
2022-11-05T19:56:28.693Z,101017.06
2022-11-05T19:58:57.304Z,101008.94
2022-11-05T20:01:26.908Z,101013.06
2022-11-05T20:03:55.651Z,101009.19
2022-11-05T20:06:29.422Z,101029.09
2022-11-05T20:09:20.493Z,101022.63
2022-11-05T20:11:45.110Z,101021.34
2022-11-05T20:14:12.376Z,101033.31
2022-11-05T20:16:42.355Z,101027.94
2022-11-05T20:19:14.029Z,101032.97
2022-11-05T20:21:41.968Z,101037.47
2022-11-05T20:24:11.824Z,101033.38
2022-11-05T20:26:39.736Z,101035.66
2022-11-05T20:29:07.112Z,101041.53
2022-11-05T20:31:34.262Z,101037.41
2022-11-05T20:34:01.532Z,101032.28
2022-11-05T20:36:28.674Z,101037.34
2022-11-05T20:38:58.210Z,101032.03
2022-11-05T20:41:26.379Z,101026.66
2022-11-05T20:43:53.925Z,101023.66
2022-11-05T20:46:22.639Z,101033.22
2022-11-05T20:48:50.471Z,101022.41
2022-11-05T20:51:21.263Z,101024.94
2022-11-05T20:53:49.172Z,101028.06
2022-11-05T20:56:24.345Z,101032.97
2022-11-05T20:58:52.008Z,101020.31
2022-11-05T21:01:20.358Z,101025.97
2022-11-05T21:03:47.925Z,101030.69
2022-11-05T21:06:15.787Z,101029.31
2022-11-05T21:08:43.879Z,101022.75
2022-11-05T21:11:10.987Z,101026.09
2022-11-05T21:13:38.489Z,101012.03
2022-11-05T21:16:08.144Z,101019.16
2022-11-05T21:18:37.952Z,101020.00
2022-11-05T21:21:10.223Z,101024.66
2022-11-05T21:23:37.370Z,101026.00
2022-11-05T21:26:11.461Z,101016.34
2022-11-05T21:28:39.897Z,101026.34
2022-11-05T21:31:08.057Z,101014.72
2022-11-05T21:33:35.521Z,101032.22
2022-11-05T21:36:07.968Z,101038.25
2022-11-05T21:38:35.097Z,101022.97
2022-11-05T21:41:03.479Z,101040.13
2022-11-05T21:43:30.788Z,101039.09
2022-11-05T21:46:01.927Z,101044.16
2022-11-05T21:48:29.519Z,101041.97
2022-11-05T21:51:15.374Z,101040.09
2022-11-05T21:54:00.901Z,101030.50
2022-11-05T21:56:46.999Z,101037.28
2022-11-05T21:59:36.657Z,101034.03
2022-11-05T22:02:04.718Z,101036.00
2022-11-05T22:04:35.409Z,101035.81
2022-11-05T22:07:03.519Z,101044.66
2022-11-05T22:09:30.953Z,101035.41
2022-11-05T22:11:58.447Z,101041.63
2022-11-05T22:14:26.586Z,101046.72
2022-11-05T22:16:54.456Z,101034.38
2022-11-05T22:19:21.929Z,101037.00
2022-11-05T22:21:49.223Z,101040.94
2022-11-05T22:24:16.774Z,101051.38
2022-11-05T22:26:44.732Z,101047.41
2022-11-05T22:29:12.597Z,101030.38
2022-11-05T22:31:40.115Z,101049.88
2022-11-05T22:34:08.363Z,101050.81
2022-11-05T22:36:35.952Z,101059.13
2022-11-05T22:39:04.206Z,101062.13
2022-11-05T22:41:31.385Z,101060.84
2022-11-05T22:43:58.522Z,101070.47
2022-11-05T22:46:26.942Z,101073.25
2022-11-05T22:48:54.803Z,101071.50
2022-11-05T22:51:24.464Z,101079.47
2022-11-05T22:53:52.012Z,101065.00
2022-11-05T22:56:21.659Z,101070.72
2022-11-05T22:58:49.283Z,101063.84
2022-11-05T23:01:17.448Z,101082.19
2022-11-05T23:03:46.763Z,101084.28
2022-11-05T23:06:38.001Z,101081.50
2022-11-05T23:09:30.471Z,101090.53
2022-11-05T23:11:57.569Z,101091.97
2022-11-05T23:14:24.720Z,101100.88
2022-11-05T23:17:10.197Z,101100.25
2022-11-05T23:19:55.703Z,101100.72
2022-11-05T23:22:44.990Z,101101.03
2022-11-05T23:25:18.446Z,101104.38
2022-11-05T23:27:48.003Z,101075.97
2022-11-05T23:30:20.283Z,101077.13
2022-11-05T23:32:48.270Z,101104.59
2022-11-05T23:35:15.726Z,101092.41
2022-11-05T23:38:01.388Z,101089.72
2022-11-05T23:40:31.061Z,101085.88
2022-11-05T23:43:16.645Z,101096.44
2022-11-05T23:46:03.121Z,101098.81
2022-11-05T23:48:35.236Z,101090.75
2022-11-05T23:51:03.705Z,101091.59
2022-11-05T23:53:34.340Z,101082.53
2022-11-05T23:56:05.242Z,101082.53
2022-11-05T23:58:32.402Z,101082.03
